sensor_id;sensor_type;location;lat;lon;timestamp;P1;durP1;ratioP1;P2;durP2;ratioP2
70549;SDS011;58101;48.658;2.328;2023-04-10T00:01:34;10.98;;;5.03;;
70549;SDS011;58101;48.658;2.328;2023-04-10T00:04:00;12.25;;;4.97;;
70549;SDS011;58101;48.658;2.328;2023-04-10T00:06:30;10.55;;;5.07;;
70549;SDS011;58101;48.658;2.328;2023-04-10T00:08:56;11.68;;;5.50;;
70549;SDS011;58101;48.658;2.328;2023-04-10T00:11:22;11.57;;;5.03;;
70549;SDS011;58101;48.658;2.328;2023-04-10T00:13:51;9.50;;;4.85;;
70549;SDS011;58101;48.658;2.328;2023-04-10T00:16:17;11.05;;;5.57;;
70549;SDS011;58101;48.658;2.328;2023-04-10T00:18:43;12.30;;;5.00;;
70549;SDS011;58101;48.658;2.328;2023-04-10T00:21:08;9.32;;;4.75;;
70549;SDS011;58101;48.658;2.328;2023-04-10T00:23:34;11.95;;;5.07;;
70549;SDS011;58101;48.658;2.328;2023-04-10T00:26:00;11.85;;;5.35;;
70549;SDS011;58101;48.658;2.328;2023-04-10T00:28:26;11.18;;;5.25;;
70549;SDS011;58101;48.658;2.328;2023-04-10T00:30:51;12.00;;;5.10;;
70549;SDS011;58101;48.658;2.328;2023-04-10T00:33:17;10.68;;;5.10;;
70549;SDS011;58101;48.658;2.328;2023-04-10T00:35:43;11.10;;;5.45;;
70549;SDS011;58101;48.658;2.328;2023-04-10T00:38:08;13.18;;;5.60;;
70549;SDS011;58101;48.658;2.328;2023-04-10T00:40:34;12.52;;;6.05;;
70549;SDS011;58101;48.658;2.328;2023-04-10T00:43:00;11.35;;;5.43;;
70549;SDS011;58101;48.658;2.328;2023-04-10T00:45:25;12.50;;;6.10;;
70549;SDS011;58101;48.658;2.328;2023-04-10T00:47:51;12.48;;;5.50;;
70549;SDS011;58101;48.658;2.328;2023-04-10T00:50:18;13.43;;;6.35;;
70549;SDS011;58101;48.658;2.328;2023-04-10T00:52:44;13.57;;;6.28;;
70549;SDS011;58101;48.658;2.328;2023-04-10T00:55:10;12.82;;;5.95;;
70549;SDS011;58101;48.658;2.328;2023-04-10T00:57:36;13.57;;;6.32;;
70549;SDS011;58101;48.658;2.328;2023-04-10T01:00:04;12.88;;;5.57;;
70549;SDS011;58101;48.658;2.328;2023-04-10T01:02:30;11.70;;;5.75;;
70549;SDS011;58101;48.658;2.328;2023-04-10T01:04:56;11.38;;;5.50;;
70549;SDS011;58101;48.658;2.328;2023-04-10T01:07:34;12.93;;;5.70;;
70549;SDS011;58101;48.658;2.328;2023-04-10T01:15:20;12.80;;;5.43;;
70549;SDS011;58101;48.658;2.328;2023-04-10T01:17:51;13.07;;;5.97;;
70549;SDS011;58101;48.658;2.328;2023-04-10T01:20:22;12.05;;;5.75;;
70549;SDS011;58101;48.658;2.328;2023-04-10T01:30:45;11.95;;;5.70;;
70549;SDS011;58101;48.658;2.328;2023-04-10T01:33:14;14.00;;;5.72;;
70549;SDS011;58101;48.658;2.328;2023-04-10T01:35:43;12.23;;;6.03;;
70549;SDS011;58101;48.658;2.328;2023-04-10T01:38:16;14.07;;;6.05;;
70549;SDS011;58101;48.658;2.328;2023-04-10T01:40:44;12.57;;;6.40;;
70549;SDS011;58101;48.658;2.328;2023-04-10T01:43:14;12.55;;;6.10;;
70549;SDS011;58101;48.658;2.328;2023-04-10T01:45:41;12.98;;;6.05;;
70549;SDS011;58101;48.658;2.328;2023-04-10T01:48:08;11.98;;;5.88;;
70549;SDS011;58101;48.658;2.328;2023-04-10T01:50:35;13.45;;;6.70;;
70549;SDS011;58101;48.658;2.328;2023-04-10T01:53:02;13.30;;;6.50;;
70549;SDS011;58101;48.658;2.328;2023-04-10T01:55:29;14.88;;;7.38;;
70549;SDS011;58101;48.658;2.328;2023-04-10T01:57:56;15.43;;;7.25;;
70549;SDS011;58101;48.658;2.328;2023-04-10T02:00:22;16.55;;;7.03;;
70549;SDS011;58101;48.658;2.328;2023-04-10T02:02:48;14.68;;;7.10;;
70549;SDS011;58101;48.658;2.328;2023-04-10T02:05:14;13.52;;;6.50;;
70549;SDS011;58101;48.658;2.328;2023-04-10T02:10:48;13.65;;;6.45;;
70549;SDS011;58101;48.658;2.328;2023-04-10T02:13:20;13.98;;;6.40;;
70549;SDS011;58101;48.658;2.328;2023-04-10T02:15:47;12.98;;;5.90;;
70549;SDS011;58101;48.658;2.328;2023-04-10T02:18:15;12.35;;;5.68;;
70549;SDS011;58101;48.658;2.328;2023-04-10T02:20:43;11.85;;;5.70;;
70549;SDS011;58101;48.658;2.328;2023-04-10T02:23:08;12.95;;;6.18;;
70549;SDS011;58101;48.658;2.328;2023-04-10T02:25:34;12.80;;;5.78;;
70549;SDS011;58101;48.658;2.328;2023-04-10T02:28:04;12.07;;;5.65;;
70549;SDS011;58101;48.658;2.328;2023-04-10T02:30:30;11.20;;;5.50;;
70549;SDS011;58101;48.658;2.328;2023-04-10T02:32:57;11.43;;;5.85;;
70549;SDS011;58101;48.658;2.328;2023-04-10T02:35:22;12.32;;;5.72;;
70549;SDS011;58101;48.658;2.328;2023-04-10T02:37:48;11.98;;;5.60;;
70549;SDS011;58101;48.658;2.328;2023-04-10T02:40:14;12.40;;;5.70;;
70549;SDS011;58101;48.658;2.328;2023-04-10T02:42:40;12.20;;;5.88;;
70549;SDS011;58101;48.658;2.328;2023-04-10T02:45:06;11.82;;;5.57;;
70549;SDS011;58101;48.658;2.328;2023-04-10T02:47:33;12.43;;;6.05;;
70549;SDS011;58101;48.658;2.328;2023-04-10T02:49:59;11.75;;;5.28;;
70549;SDS011;58101;48.658;2.328;2023-04-10T02:52:25;12.45;;;5.90;;
70549;SDS011;58101;48.658;2.328;2023-04-10T02:54:50;12.90;;;5.50;;
70549;SDS011;58101;48.658;2.328;2023-04-10T02:57:16;12.13;;;5.28;;
70549;SDS011;58101;48.658;2.328;2023-04-10T02:59:42;12.32;;;5.63;;
70549;SDS011;58101;48.658;2.328;2023-04-10T03:02:08;10.52;;;5.18;;
70549;SDS011;58101;48.658;2.328;2023-04-10T03:04:34;10.77;;;5.05;;
70549;SDS011;58101;48.658;2.328;2023-04-10T03:07:00;13.43;;;5.85;;
70549;SDS011;58101;48.658;2.328;2023-04-10T03:09:26;11.48;;;5.65;;
70549;SDS011;58101;48.658;2.328;2023-04-10T03:11:51;11.52;;;5.28;;
70549;SDS011;58101;48.658;2.328;2023-04-10T03:14:17;11.50;;;5.53;;
70549;SDS011;58101;48.658;2.328;2023-04-10T03:16:43;12.63;;;5.40;;
70549;SDS011;58101;48.658;2.328;2023-04-10T03:19:09;13.05;;;5.70;;
70549;SDS011;58101;48.658;2.328;2023-04-10T03:21:36;13.80;;;5.72;;
70549;SDS011;58101;48.658;2.328;2023-04-10T03:24:02;14.50;;;5.63;;
70549;SDS011;58101;48.658;2.328;2023-04-10T03:26:28;11.77;;;5.50;;
70549;SDS011;58101;48.658;2.328;2023-04-10T03:28:53;11.80;;;5.70;;
70549;SDS011;58101;48.658;2.328;2023-04-10T03:31:19;11.05;;;5.05;;
70549;SDS011;58101;48.658;2.328;2023-04-10T03:33:45;14.63;;;5.30;;
70549;SDS011;58101;48.658;2.328;2023-04-10T03:36:10;11.10;;;5.20;;
70549;SDS011;58101;48.658;2.328;2023-04-10T03:38:36;12.30;;;5.63;;
70549;SDS011;58101;48.658;2.328;2023-04-10T03:41:02;12.48;;;5.47;;
70549;SDS011;58101;48.658;2.328;2023-04-10T03:43:28;10.48;;;5.00;;
70549;SDS011;58101;48.658;2.328;2023-04-10T03:45:55;11.50;;;5.40;;
70549;SDS011;58101;48.658;2.328;2023-04-10T03:48:20;11.75;;;5.43;;
70549;SDS011;58101;48.658;2.328;2023-04-10T03:50:46;12.15;;;5.13;;
70549;SDS011;58101;48.658;2.328;2023-04-10T03:53:11;11.18;;;4.75;;
70549;SDS011;58101;48.658;2.328;2023-04-10T03:55:37;11.13;;;4.90;;
70549;SDS011;58101;48.658;2.328;2023-04-10T03:58:03;10.57;;;4.80;;
70549;SDS011;58101;48.658;2.328;2023-04-10T04:00:30;9.90;;;4.65;;
70549;SDS011;58101;48.658;2.328;2023-04-10T04:02:56;10.43;;;4.82;;
70549;SDS011;58101;48.658;2.328;2023-04-10T04:05:23;10.93;;;4.40;;
70549;SDS011;58101;48.658;2.328;2023-04-10T04:07:49;12.27;;;5.07;;
70549;SDS011;58101;48.658;2.328;2023-04-10T04:10:14;10.25;;;4.72;;
70549;SDS011;58101;48.658;2.328;2023-04-10T04:12:40;11.50;;;4.57;;
70549;SDS011;58101;48.658;2.328;2023-04-10T04:15:06;10.23;;;4.85;;
70549;SDS011;58101;48.658;2.328;2023-04-10T04:17:32;10.68;;;4.30;;
70549;SDS011;58101;48.658;2.328;2023-04-10T04:19:57;9.55;;;4.20;;
70549;SDS011;58101;48.658;2.328;2023-04-10T04:22:23;12.48;;;4.72;;
70549;SDS011;58101;48.658;2.328;2023-04-10T04:24:49;10.50;;;4.30;;
70549;SDS011;58101;48.658;2.328;2023-04-10T04:27:14;9.40;;;4.60;;
70549;SDS011;58101;48.658;2.328;2023-04-10T04:29:40;9.98;;;4.28;;
70549;SDS011;58101;48.658;2.328;2023-04-10T04:32:05;9.60;;;4.68;;
70549;SDS011;58101;48.658;2.328;2023-04-10T04:34:31;10.90;;;4.53;;
70549;SDS011;58101;48.658;2.328;2023-04-10T04:36:57;9.95;;;4.70;;
70549;SDS011;58101;48.658;2.328;2023-04-10T04:39:22;11.40;;;4.25;;
70549;SDS011;58101;48.658;2.328;2023-04-10T04:41:48;8.77;;;3.85;;
70549;SDS011;58101;48.658;2.328;2023-04-10T04:44:14;11.02;;;4.60;;
70549;SDS011;58101;48.658;2.328;2023-04-10T04:46:40;9.68;;;4.38;;
70549;SDS011;58101;48.658;2.328;2023-04-10T04:49:05;10.15;;;4.70;;
70549;SDS011;58101;48.658;2.328;2023-04-10T04:51:31;10.52;;;4.30;;
70549;SDS011;58101;48.658;2.328;2023-04-10T04:53:56;9.27;;;4.50;;
70549;SDS011;58101;48.658;2.328;2023-04-10T04:56:22;8.95;;;4.10;;
70549;SDS011;58101;48.658;2.328;2023-04-10T04:58:48;9.20;;;4.15;;
70549;SDS011;58101;48.658;2.328;2023-04-10T05:01:13;9.98;;;4.35;;
70549;SDS011;58101;48.658;2.328;2023-04-10T05:03:39;9.48;;;3.95;;
70549;SDS011;58101;48.658;2.328;2023-04-10T05:06:05;8.48;;;3.85;;
70549;SDS011;58101;48.658;2.328;2023-04-10T05:08:31;10.50;;;4.53;;
70549;SDS011;58101;48.658;2.328;2023-04-10T05:10:57;8.68;;;4.00;;
70549;SDS011;58101;48.658;2.328;2023-04-10T05:13:22;9.07;;;4.10;;
70549;SDS011;58101;48.658;2.328;2023-04-10T05:15:48;8.98;;;4.32;;
70549;SDS011;58101;48.658;2.328;2023-04-10T05:18:13;9.90;;;4.30;;
70549;SDS011;58101;48.658;2.328;2023-04-10T05:20:43;9.93;;;4.47;;
70549;SDS011;58101;48.658;2.328;2023-04-10T05:23:10;9.88;;;4.07;;
70549;SDS011;58101;48.658;2.328;2023-04-10T05:25:36;9.10;;;4.03;;
70549;SDS011;58101;48.658;2.328;2023-04-10T05:28:01;9.75;;;4.00;;
70549;SDS011;58101;48.658;2.328;2023-04-10T05:30:27;9.68;;;4.28;;
70549;SDS011;58101;48.658;2.328;2023-04-10T05:32:53;10.45;;;4.40;;
70549;SDS011;58101;48.658;2.328;2023-04-10T05:35:18;8.45;;;3.97;;
70549;SDS011;58101;48.658;2.328;2023-04-10T05:37:44;9.57;;;4.03;;
70549;SDS011;58101;48.658;2.328;2023-04-10T05:40:10;7.45;;;3.63;;
70549;SDS011;58101;48.658;2.328;2023-04-10T05:42:35;10.50;;;3.90;;
70549;SDS011;58101;48.658;2.328;2023-04-10T05:45:01;10.05;;;4.03;;
70549;SDS011;58101;48.658;2.328;2023-04-10T05:47:27;8.95;;;3.55;;
70549;SDS011;58101;48.658;2.328;2023-04-10T05:49:52;8.93;;;3.95;;
70549;SDS011;58101;48.658;2.328;2023-04-10T05:52:18;9.30;;;3.88;;
70549;SDS011;58101;48.658;2.328;2023-04-10T05:54:43;8.65;;;4.00;;
70549;SDS011;58101;48.658;2.328;2023-04-10T05:57:09;8.70;;;4.00;;
70549;SDS011;58101;48.658;2.328;2023-04-10T05:59:35;7.82;;;3.83;;
70549;SDS011;58101;48.658;2.328;2023-04-10T06:02:01;8.63;;;4.03;;
70549;SDS011;58101;48.658;2.328;2023-04-10T06:04:26;9.00;;;4.18;;
70549;SDS011;58101;48.658;2.328;2023-04-10T06:06:52;8.57;;;3.78;;
70549;SDS011;58101;48.658;2.328;2023-04-10T06:09:18;8.52;;;4.00;;
70549;SDS011;58101;48.658;2.328;2023-04-10T06:11:43;8.75;;;4.05;;
70549;SDS011;58101;48.658;2.328;2023-04-10T06:14:09;9.73;;;4.00;;
70549;SDS011;58101;48.658;2.328;2023-04-10T06:16:35;9.07;;;3.85;;
70549;SDS011;58101;48.658;2.328;2023-04-10T06:19:00;8.60;;;3.55;;
70549;SDS011;58101;48.658;2.328;2023-04-10T06:21:26;8.07;;;3.70;;
70549;SDS011;58101;48.658;2.328;2023-04-10T06:23:52;8.25;;;3.92;;
70549;SDS011;58101;48.658;2.328;2023-04-10T06:26:18;8.93;;;3.65;;
70549;SDS011;58101;48.658;2.328;2023-04-10T06:28:43;9.27;;;4.20;;
70549;SDS011;58101;48.658;2.328;2023-04-10T06:31:09;9.40;;;4.20;;
70549;SDS011;58101;48.658;2.328;2023-04-10T06:33:36;9.40;;;4.10;;
70549;SDS011;58101;48.658;2.328;2023-04-10T06:36:02;10.50;;;4.78;;
70549;SDS011;58101;48.658;2.328;2023-04-10T06:38:28;10.43;;;4.57;;
70549;SDS011;58101;48.658;2.328;2023-04-10T06:40:54;9.65;;;4.40;;
70549;SDS011;58101;48.658;2.328;2023-04-10T06:43:20;10.32;;;3.72;;
70549;SDS011;58101;48.658;2.328;2023-04-10T06:45:45;8.10;;;3.70;;
70549;SDS011;58101;48.658;2.328;2023-04-10T06:48:11;9.95;;;4.20;;
70549;SDS011;58101;48.658;2.328;2023-04-10T06:50:37;8.85;;;4.18;;
70549;SDS011;58101;48.658;2.328;2023-04-10T06:53:03;9.68;;;4.13;;
70549;SDS011;58101;48.658;2.328;2023-04-10T06:55:28;9.25;;;4.15;;
70549;SDS011;58101;48.658;2.328;2023-04-10T06:57:54;8.60;;;3.67;;
70549;SDS011;58101;48.658;2.328;2023-04-10T07:00:20;8.60;;;3.60;;
70549;SDS011;58101;48.658;2.328;2023-04-10T07:02:46;8.50;;;4.00;;
70549;SDS011;58101;48.658;2.328;2023-04-10T07:05:12;9.07;;;3.50;;
70549;SDS011;58101;48.658;2.328;2023-04-10T07:07:38;9.07;;;3.67;;
70549;SDS011;58101;48.658;2.328;2023-04-10T07:10:04;9.02;;;4.00;;
70549;SDS011;58101;48.658;2.328;2023-04-10T07:12:31;13.55;;;5.55;;
70549;SDS011;58101;48.658;2.328;2023-04-10T07:14:57;10.38;;;3.83;;
70549;SDS011;58101;48.658;2.328;2023-04-10T07:17:23;8.32;;;3.72;;
70549;SDS011;58101;48.658;2.328;2023-04-10T07:19:48;7.97;;;3.67;;
70549;SDS011;58101;48.658;2.328;2023-04-10T07:22:14;9.85;;;4.00;;
70549;SDS011;58101;48.658;2.328;2023-04-10T07:24:40;7.97;;;3.58;;
70549;SDS011;58101;48.658;2.328;2023-04-10T07:27:06;8.38;;;4.15;;
70549;SDS011;58101;48.658;2.328;2023-04-10T07:29:32;7.63;;;3.45;;
70549;SDS011;58101;48.658;2.328;2023-04-10T07:31:57;8.32;;;3.80;;
70549;SDS011;58101;48.658;2.328;2023-04-10T07:34:23;9.40;;;3.53;;
70549;SDS011;58101;48.658;2.328;2023-04-10T07:36:49;8.73;;;3.70;;
70549;SDS011;58101;48.658;2.328;2023-04-10T07:39:15;7.90;;;3.47;;
70549;SDS011;58101;48.658;2.328;2023-04-10T07:41:41;8.95;;;3.60;;
70549;SDS011;58101;48.658;2.328;2023-04-10T07:44:07;8.20;;;3.83;;
70549;SDS011;58101;48.658;2.328;2023-04-10T07:46:33;7.75;;;3.60;;
70549;SDS011;58101;48.658;2.328;2023-04-10T07:48:58;8.77;;;4.03;;
70549;SDS011;58101;48.658;2.328;2023-04-10T07:51:24;8.35;;;3.63;;
70549;SDS011;58101;48.658;2.328;2023-04-10T07:53:49;8.40;;;3.63;;
70549;SDS011;58101;48.658;2.328;2023-04-10T07:56:19;8.45;;;3.80;;
70549;SDS011;58101;48.658;2.328;2023-04-10T07:58:45;9.65;;;3.70;;
70549;SDS011;58101;48.658;2.328;2023-04-10T08:01:11;9.13;;;3.78;;
70549;SDS011;58101;48.658;2.328;2023-04-10T08:03:42;8.82;;;3.95;;
70549;SDS011;58101;48.658;2.328;2023-04-10T08:06:09;8.50;;;3.38;;
70549;SDS011;58101;48.658;2.328;2023-04-10T08:08:36;7.95;;;3.65;;
70549;SDS011;58101;48.658;2.328;2023-04-10T08:11:06;9.18;;;4.15;;
70549;SDS011;58101;48.658;2.328;2023-04-10T08:13:45;11.63;;;4.80;;
70549;SDS011;58101;48.658;2.328;2023-04-10T08:16:11;10.18;;;3.92;;
70549;SDS011;58101;48.658;2.328;2023-04-10T08:18:36;8.18;;;3.50;;
70549;SDS011;58101;48.658;2.328;2023-04-10T08:21:02;7.47;;;3.22;;
70549;SDS011;58101;48.658;2.328;2023-04-10T08:23:27;7.32;;;3.45;;
70549;SDS011;58101;48.658;2.328;2023-04-10T08:25:53;8.52;;;3.92;;
70549;SDS011;58101;48.658;2.328;2023-04-10T08:28:18;9.30;;;4.45;;
70549;SDS011;58101;48.658;2.328;2023-04-10T08:30:45;9.07;;;3.90;;
70549;SDS011;58101;48.658;2.328;2023-04-10T08:33:10;7.57;;;3.45;;
70549;SDS011;58101;48.658;2.328;2023-04-10T08:35:36;7.20;;;3.00;;
70549;SDS011;58101;48.658;2.328;2023-04-10T08:38:02;6.82;;;3.00;;
70549;SDS011;58101;48.658;2.328;2023-04-10T08:40:27;7.38;;;3.00;;
70549;SDS011;58101;48.658;2.328;2023-04-10T08:42:53;7.57;;;3.00;;
70549;SDS011;58101;48.658;2.328;2023-04-10T08:45:19;6.72;;;2.85;;
70549;SDS011;58101;48.658;2.328;2023-04-10T08:47:45;6.70;;;2.70;;
70549;SDS011;58101;48.658;2.328;2023-04-10T08:50:14;6.72;;;2.90;;
70549;SDS011;58101;48.658;2.328;2023-04-10T08:52:42;7.78;;;2.97;;
70549;SDS011;58101;48.658;2.328;2023-04-10T08:55:10;7.45;;;2.70;;
70549;SDS011;58101;48.658;2.328;2023-04-10T08:57:37;6.47;;;2.72;;
70549;SDS011;58101;48.658;2.328;2023-04-10T09:00:04;6.97;;;2.80;;
70549;SDS011;58101;48.658;2.328;2023-04-10T09:02:30;9.07;;;2.80;;
70549;SDS011;58101;48.658;2.328;2023-04-10T09:04:56;7.10;;;2.88;;
70549;SDS011;58101;48.658;2.328;2023-04-10T09:07:24;7.97;;;3.05;;
70549;SDS011;58101;48.658;2.328;2023-04-10T09:12:16;6.72;;;3.05;;
70549;SDS011;58101;48.658;2.328;2023-04-10T09:14:42;7.75;;;2.78;;
70549;SDS011;58101;48.658;2.328;2023-04-10T09:17:20;7.15;;;2.78;;
70549;SDS011;58101;48.658;2.328;2023-04-10T09:19:53;6.50;;;2.70;;
70549;SDS011;58101;48.658;2.328;2023-04-10T09:22:29;7.03;;;3.03;;
70549;SDS011;58101;48.658;2.328;2023-04-10T09:24:56;7.47;;;2.97;;
70549;SDS011;58101;48.658;2.328;2023-04-10T09:27:30;6.47;;;2.78;;
70549;SDS011;58101;48.658;2.328;2023-04-10T09:30:00;7.35;;;2.80;;
70549;SDS011;58101;48.658;2.328;2023-04-10T09:32:42;6.95;;;2.95;;
70549;SDS011;58101;48.658;2.328;2023-04-10T09:35:11;6.32;;;2.65;;
70549;SDS011;58101;48.658;2.328;2023-04-10T09:37:37;8.05;;;2.90;;
70549;SDS011;58101;48.658;2.328;2023-04-10T09:40:18;8.35;;;3.00;;
70549;SDS011;58101;48.658;2.328;2023-04-10T09:42:52;7.13;;;2.90;;
70549;SDS011;58101;48.658;2.328;2023-04-10T09:45:19;7.55;;;3.10;;
70549;SDS011;58101;48.658;2.328;2023-04-10T09:48:06;7.70;;;3.17;;
70549;SDS011;58101;48.658;2.328;2023-04-10T09:50:38;7.43;;;3.17;;
70549;SDS011;58101;48.658;2.328;2023-04-10T09:53:11;8.98;;;3.17;;
70549;SDS011;58101;48.658;2.328;2023-04-10T09:55:38;7.10;;;2.95;;
70549;SDS011;58101;48.658;2.328;2023-04-10T09:58:05;8.55;;;3.25;;
70549;SDS011;58101;48.658;2.328;2023-04-10T10:00:37;11.88;;;4.65;;
70549;SDS011;58101;48.658;2.328;2023-04-10T10:03:06;11.25;;;4.13;;
70549;SDS011;58101;48.658;2.328;2023-04-10T10:05:35;11.13;;;4.20;;
70549;SDS011;58101;48.658;2.328;2023-04-10T10:08:05;10.15;;;4.43;;
70549;SDS011;58101;48.658;2.328;2023-04-10T10:10:33;9.27;;;3.97;;
70549;SDS011;58101;48.658;2.328;2023-04-10T10:13:05;9.02;;;3.53;;
70549;SDS011;58101;48.658;2.328;2023-04-10T10:18:02;8.00;;;3.00;;
70549;SDS011;58101;48.658;2.328;2023-04-10T10:20:34;8.43;;;2.92;;
70549;SDS011;58101;48.658;2.328;2023-04-10T10:23:03;8.27;;;3.45;;
70549;SDS011;58101;48.658;2.328;2023-04-10T10:25:31;6.78;;;2.92;;
70549;SDS011;58101;48.658;2.328;2023-04-10T10:27:59;8.93;;;2.90;;
70549;SDS011;58101;48.658;2.328;2023-04-10T10:30:32;8.05;;;2.90;;
70549;SDS011;58101;48.658;2.328;2023-04-10T10:32:59;7.20;;;3.03;;
70549;SDS011;58101;48.658;2.328;2023-04-10T10:35:26;7.45;;;3.10;;
70549;SDS011;58101;48.658;2.328;2023-04-10T10:37:54;6.63;;;2.88;;
70549;SDS011;58101;48.658;2.328;2023-04-10T10:40:27;7.65;;;3.28;;
70549;SDS011;58101;48.658;2.328;2023-04-10T10:45:55;8.40;;;3.22;;
70549;SDS011;58101;48.658;2.328;2023-04-10T10:48:22;7.32;;;3.00;;
70549;SDS011;58101;48.658;2.328;2023-04-10T10:56:33;7.18;;;2.67;;
70549;SDS011;58101;48.658;2.328;2023-04-10T11:01:23;6.70;;;2.63;;
70549;SDS011;58101;48.658;2.328;2023-04-10T11:03:50;7.53;;;2.72;;
70549;SDS011;58101;48.658;2.328;2023-04-10T11:06:19;6.95;;;2.70;;
70549;SDS011;58101;48.658;2.328;2023-04-10T11:08:52;6.32;;;2.60;;
70549;SDS011;58101;48.658;2.328;2023-04-10T11:11:21;7.05;;;2.60;;
70549;SDS011;58101;48.658;2.328;2023-04-10T11:16:20;6.60;;;2.60;;
70549;SDS011;58101;48.658;2.328;2023-04-10T11:31:45;12.05;;;2.60;;
70549;SDS011;58101;48.658;2.328;2023-04-10T11:34:18;5.90;;;2.22;;
70549;SDS011;58101;48.658;2.328;2023-04-10T11:36:44;7.00;;;2.30;;
70549;SDS011;58101;48.658;2.328;2023-04-10T11:39:10;6.88;;;2.28;;
70549;SDS011;58101;48.658;2.328;2023-04-10T11:41:55;7.00;;;2.28;;
70549;SDS011;58101;48.658;2.328;2023-04-10T11:46:50;6.57;;;2.25;;
70549;SDS011;58101;48.658;2.328;2023-04-10T11:49:18;7.15;;;2.40;;
70549;SDS011;58101;48.658;2.328;2023-04-10T11:51:45;6.45;;;2.20;;
70549;SDS011;58101;48.658;2.328;2023-04-10T11:54:14;7.13;;;2.40;;
70549;SDS011;58101;48.658;2.328;2023-04-10T11:56:45;22.48;;;3.15;;
70549;SDS011;58101;48.658;2.328;2023-04-10T11:59:22;5.80;;;2.03;;
70549;SDS011;58101;48.658;2.328;2023-04-10T12:01:49;6.80;;;1.85;;
70549;SDS011;58101;48.658;2.328;2023-04-10T12:04:20;7.00;;;2.03;;
70549;SDS011;58101;48.658;2.328;2023-04-10T12:06:48;7.53;;;1.95;;
70549;SDS011;58101;48.658;2.328;2023-04-10T12:09:16;6.70;;;2.03;;
70549;SDS011;58101;48.658;2.328;2023-04-10T12:11:55;5.43;;;1.73;;
70549;SDS011;58101;48.658;2.328;2023-04-10T12:14:28;6.15;;;1.70;;
70549;SDS011;58101;48.658;2.328;2023-04-10T12:17:01;7.28;;;2.00;;
70549;SDS011;58101;48.658;2.328;2023-04-10T12:19:28;5.55;;;1.75;;
70549;SDS011;58101;48.658;2.328;2023-04-10T12:21:54;5.25;;;1.73;;
70549;SDS011;58101;48.658;2.328;2023-04-10T12:27:18;7.03;;;2.30;;
70549;SDS011;58101;48.658;2.328;2023-04-10T12:29:50;6.13;;;2.17;;
70549;SDS011;58101;48.658;2.328;2023-04-10T12:32:17;6.70;;;1.83;;
70549;SDS011;58101;48.658;2.328;2023-04-10T12:34:52;6.07;;;1.80;;
70549;SDS011;58101;48.658;2.328;2023-04-10T12:37:23;7.15;;;2.03;;
70549;SDS011;58101;48.658;2.328;2023-04-10T12:39:49;6.75;;;2.42;;
70549;SDS011;58101;48.658;2.328;2023-04-10T12:42:19;6.80;;;2.22;;
70549;SDS011;58101;48.658;2.328;2023-04-10T12:47:23;5.95;;;1.75;;
70549;SDS011;58101;48.658;2.328;2023-04-10T12:52:35;5.63;;;1.60;;
70549;SDS011;58101;48.658;2.328;2023-04-10T12:57:37;5.93;;;1.60;;
70549;SDS011;58101;48.658;2.328;2023-04-10T13:00:04;5.43;;;1.92;;
70549;SDS011;58101;48.658;2.328;2023-04-10T13:02:30;6.45;;;1.70;;
70549;SDS011;58101;48.658;2.328;2023-04-10T13:04:56;8.93;;;2.80;;
70549;SDS011;58101;48.658;2.328;2023-04-10T13:07:23;8.80;;;2.58;;
70549;SDS011;58101;48.658;2.328;2023-04-10T13:09:48;7.15;;;2.20;;
70549;SDS011;58101;48.658;2.328;2023-04-10T13:12:14;6.03;;;1.92;;
70549;SDS011;58101;48.658;2.328;2023-04-10T13:14:40;6.00;;;2.05;;
70549;SDS011;58101;48.658;2.328;2023-04-10T13:17:06;8.27;;;2.03;;
70549;SDS011;58101;48.658;2.328;2023-04-10T13:19:31;5.60;;;1.75;;
70549;SDS011;58101;48.658;2.328;2023-04-10T13:21:57;5.97;;;1.70;;
70549;SDS011;58101;48.658;2.328;2023-04-10T13:24:25;7.05;;;2.00;;
70549;SDS011;58101;48.658;2.328;2023-04-10T13:26:50;6.55;;;2.13;;
70549;SDS011;58101;48.658;2.328;2023-04-10T13:29:16;6.03;;;1.90;;
70549;SDS011;58101;48.658;2.328;2023-04-10T13:31:42;6.55;;;1.70;;
70549;SDS011;58101;48.658;2.328;2023-04-10T13:34:07;5.03;;;1.65;;
70549;SDS011;58101;48.658;2.328;2023-04-10T13:36:33;5.35;;;1.77;;
70549;SDS011;58101;48.658;2.328;2023-04-10T13:38:58;5.22;;;1.90;;
70549;SDS011;58101;48.658;2.328;2023-04-10T13:41:24;5.65;;;1.67;;
70549;SDS011;58101;48.658;2.328;2023-04-10T13:43:50;6.38;;;1.70;;
70549;SDS011;58101;48.658;2.328;2023-04-10T13:46:15;7.00;;;2.03;;
70549;SDS011;58101;48.658;2.328;2023-04-10T13:48:41;6.97;;;1.95;;
70549;SDS011;58101;48.658;2.328;2023-04-10T13:51:10;6.85;;;1.92;;
70549;SDS011;58101;48.658;2.328;2023-04-10T13:53:35;5.70;;;1.73;;
70549;SDS011;58101;48.658;2.328;2023-04-10T13:56:01;6.20;;;1.80;;
70549;SDS011;58101;48.658;2.328;2023-04-10T13:58:27;5.72;;;1.75;;
70549;SDS011;58101;48.658;2.328;2023-04-10T14:00:55;6.25;;;1.95;;
70549;SDS011;58101;48.658;2.328;2023-04-10T14:03:21;8.25;;;1.73;;
70549;SDS011;58101;48.658;2.328;2023-04-10T14:05:47;6.18;;;1.70;;
70549;SDS011;58101;48.658;2.328;2023-04-10T14:08:15;6.22;;;1.67;;
70549;SDS011;58101;48.658;2.328;2023-04-10T14:10:41;6.00;;;1.52;;
70549;SDS011;58101;48.658;2.328;2023-04-10T14:13:06;5.82;;;1.60;;
70549;SDS011;58101;48.658;2.328;2023-04-10T14:15:33;12.40;;;2.08;;
70549;SDS011;58101;48.658;2.328;2023-04-10T14:17:58;5.22;;;1.60;;
70549;SDS011;58101;48.658;2.328;2023-04-10T14:20:24;5.43;;;1.60;;
70549;SDS011;58101;48.658;2.328;2023-04-10T14:22:50;5.68;;;1.70;;
70549;SDS011;58101;48.658;2.328;2023-04-10T14:25:15;6.25;;;1.80;;
70549;SDS011;58101;48.658;2.328;2023-04-10T14:27:41;5.68;;;1.70;;
70549;SDS011;58101;48.658;2.328;2023-04-10T14:30:08;7.13;;;1.85;;
70549;SDS011;58101;48.658;2.328;2023-04-10T14:32:34;5.78;;;1.63;;
70549;SDS011;58101;48.658;2.328;2023-04-10T14:34:59;6.07;;;1.60;;
70549;SDS011;58101;48.658;2.328;2023-04-10T14:37:25;6.53;;;1.70;;
70549;SDS011;58101;48.658;2.328;2023-04-10T14:39:51;7.60;;;1.80;;
70549;SDS011;58101;48.658;2.328;2023-04-10T14:42:16;6.35;;;1.60;;
70549;SDS011;58101;48.658;2.328;2023-04-10T14:44:42;7.28;;;1.90;;
70549;SDS011;58101;48.658;2.328;2023-04-10T14:47:07;5.00;;;1.50;;
70549;SDS011;58101;48.658;2.328;2023-04-10T14:49:34;5.32;;;1.70;;
70549;SDS011;58101;48.658;2.328;2023-04-10T14:51:59;6.18;;;1.80;;
70549;SDS011;58101;48.658;2.328;2023-04-10T14:54:25;6.38;;;1.65;;
70549;SDS011;58101;48.658;2.328;2023-04-10T14:56:51;6.82;;;1.60;;
70549;SDS011;58101;48.658;2.328;2023-04-10T14:59:16;5.60;;;1.80;;
70549;SDS011;58101;48.658;2.328;2023-04-10T15:01:42;6.38;;;1.60;;
70549;SDS011;58101;48.658;2.328;2023-04-10T15:04:09;5.78;;;1.80;;
70549;SDS011;58101;48.658;2.328;2023-04-10T15:06:35;7.07;;;1.70;;
70549;SDS011;58101;48.658;2.328;2023-04-10T15:09:01;5.10;;;1.50;;
70549;SDS011;58101;48.658;2.328;2023-04-10T15:11:27;6.13;;;2.00;;
70549;SDS011;58101;48.658;2.328;2023-04-10T15:13:53;6.47;;;1.80;;
70549;SDS011;58101;48.658;2.328;2023-04-10T15:16:18;5.70;;;1.80;;
70549;SDS011;58101;48.658;2.328;2023-04-10T15:18:47;7.45;;;1.85;;
70549;SDS011;58101;48.658;2.328;2023-04-10T15:21:13;7.25;;;2.13;;
70549;SDS011;58101;48.658;2.328;2023-04-10T15:23:39;5.80;;;1.92;;
70549;SDS011;58101;48.658;2.328;2023-04-10T15:26:09;5.80;;;2.00;;
70549;SDS011;58101;48.658;2.328;2023-04-10T15:28:36;6.32;;;2.00;;
70549;SDS011;58101;48.658;2.328;2023-04-10T15:31:02;8.27;;;2.13;;
70549;SDS011;58101;48.658;2.328;2023-04-10T15:33:28;6.78;;;2.10;;
70549;SDS011;58101;48.658;2.328;2023-04-10T15:35:53;8.18;;;2.10;;
70549;SDS011;58101;48.658;2.328;2023-04-10T15:38:19;8.65;;;2.58;;
70549;SDS011;58101;48.658;2.328;2023-04-10T15:40:45;7.10;;;2.10;;
70549;SDS011;58101;48.658;2.328;2023-04-10T15:43:11;8.20;;;2.10;;